Time;durP1;ratioP1;P1;durP2;ratioP2;P2;SDS_P1;SDS_P2;PMS_P1;PMS_P2;Temp;Humidity;BMP_temperature;BMP_pressure;BME280_temperature;BME280_humidity;BME280_pressure;Samples;Min_cycle;Max_cycle;Signal;HPM_P1;HPM_P2
2021/03/04 00:00:14;;;;;;;25.30;7.15;;;4.60;99.90;;;;;;5032675;28;20083;-63
2021/03/04 00:02:41;;;;;;;27.75;5.40;;;4.60;99.90;;;;;;5034091;28;20033;-63
2021/03/04 00:05:09;;;;;;;25.30;5.10;;;4.60;99.90;;;;;;5035021;28;20064;-63
2021/03/04 00:07:36;;;;;;;26.88;6.97;;;4.60;99.90;;;;;;5037647;28;20032;-64
2021/03/04 00:10:05;;;;;;;30.48;5.47;;;4.60;99.90;;;;;;5035529;28;20102;-63
2021/03/04 00:12:31;;;;;;;32.67;5.93;;;4.60;99.90;;;;;;5037152;28;20031;-63
2021/03/04 00:14:57;;;;;;;34.42;5.65;;;4.60;99.90;;;;;;5037515;28;20033;-63
2021/03/04 00:17:23;;;;;;;25.38;6.00;;;4.60;99.90;;;;;;5033647;28;20045;-64
2021/03/04 00:19:49;;;;;;;37.35;5.82;;;4.60;99.90;;;;;;5038625;28;20040;-63
2021/03/04 00:22:14;;;;;;;34.17;6.25;;;4.60;99.90;;;;;;5035752;28;20025;-63
2021/03/04 00:24:40;;;;;;;27.20;6.07;;;4.50;99.90;;;;;;5038484;28;20052;-63
2021/03/04 00:27:06;;;;;;;33.90;6.57;;;4.50;99.90;;;;;;5034157;28;20033;-63
2021/03/04 00:29:32;;;;;;;35.05;5.75;;;4.50;99.90;;;;;;5037161;28;20575;-63
2021/03/04 00:31:58;;;;;;;43.60;7.18;;;4.50;99.90;;;;;;5025854;28;20032;-63
2021/03/04 00:34:24;;;;;;;29.25;7.55;;;4.40;99.90;;;;;;5033764;28;20032;-63
2021/03/04 00:36:50;;;;;;;29.05;6.43;;;4.40;99.90;;;;;;5032806;28;20033;-64
2021/03/04 00:39:16;;;;;;;33.70;5.88;;;4.40;99.90;;;;;;5035155;28;20456;-63
2021/03/04 00:41:42;;;;;;;26.80;5.85;;;4.40;99.90;;;;;;5033498;28;20132;-63
2021/03/04 00:44:08;;;;;;;35.78;6.80;;;4.40;99.90;;;;;;5035223;28;20487;-63
2021/03/04 00:46:35;;;;;;;27.58;6.60;;;4.40;99.90;;;;;;5033642;28;20846;-63
2021/03/04 00:49:01;;;;;;;50.83;9.85;;;4.40;99.90;;;;;;5036022;28;20163;-63
2021/03/04 00:51:28;;;;;;;33.78;6.32;;;4.30;99.90;;;;;;5031913;28;20116;-63
2021/03/04 00:53:54;;;;;;;33.00;7.68;;;4.30;99.90;;;;;;5024268;28;20029;-63
2021/03/04 00:56:20;;;;;;;33.75;6.57;;;4.30;99.90;;;;;;5033907;28;20037;-63
2021/03/04 00:58:46;;;;;;;43.83;6.10;;;4.20;99.90;;;;;;5033325;28;20385;-63
2021/03/04 01:01:12;;;;;;;39.60;6.85;;;4.20;99.90;;;;;;5038918;28;20032;-64
2021/03/04 01:03:38;;;;;;;40.22;5.45;;;4.10;99.90;;;;;;5035534;28;20056;-63
2021/03/04 01:06:04;;;;;;;36.47;6.30;;;4.00;99.90;;;;;;5039178;28;20029;-64
2021/03/04 01:08:30;;;;;;;31.05;5.93;;;3.90;99.90;;;;;;5031945;28;20440;-63
2021/03/04 01:10:56;;;;;;;27.55;6.50;;;4.00;99.90;;;;;;5037110;28;20040;-64
2021/03/04 01:13:23;;;;;;;33.83;7.05;;;3.80;99.90;;;;;;5037216;28;20033;-64
2021/03/04 01:15:49;;;;;;;33.95;6.28;;;3.80;99.90;;;;;;5034925;28;20060;-63
2021/03/04 01:18:15;;;;;;;41.00;6.03;;;3.80;99.90;;;;;;5036674;28;20049;-64
2021/03/04 01:20:41;;;;;;;24.90;6.65;;;3.80;99.90;;;;;;5037648;28;20114;-64
2021/03/04 01:23:07;;;;;;;38.10;5.93;;;3.70;99.90;;;;;;5032930;28;20584;-63
2021/03/04 01:25:33;;;;;;;24.30;5.35;;;3.80;99.90;;;;;;5035721;28;20026;-63
2021/03/04 01:27:59;;;;;;;28.25;4.88;;;3.80;99.90;;;;;;5037777;28;20049;-63
2021/03/04 01:30:30;;;;;;;31.60;5.05;;;3.70;99.90;;;;;;5038294;28;20132;-63
2021/03/04 01:32:56;;;;;;;22.95;5.55;;;3.60;99.90;;;;;;5039971;28;20031;-63
2021/03/04 01:35:22;;;;;;;32.95;5.78;;;3.60;99.90;;;;;;5031477;28;20033;-63
2021/03/04 01:37:48;;;;;;;20.60;5.32;;;3.60;99.90;;;;;;5040690;28;20075;-63
2021/03/04 01:40:17;;;;;;;30.73;5.65;;;3.50;99.90;;;;;;5036561;28;20032;-63
2021/03/04 01:42:43;;;;;;;17.85;4.15;;;3.60;99.90;;;;;;5036537;28;20028;-63
2021/03/04 01:45:10;;;;;;;24.30;4.80;;;3.60;99.90;;;;;;5036592;28;20496;-63
2021/03/04 01:47:38;;;;;;;30.30;4.78;;;3.50;99.90;;;;;;5037913;28;20394;-63
2021/03/04 01:50:09;;;;;;;36.60;5.57;;;3.50;99.90;;;;;;5033704;28;20033;-63
2021/03/04 01:52:35;;;;;;;25.98;5.43;;;3.60;99.90;;;;;;5036310;28;20029;-63
2021/03/04 01:55:02;;;;;;;36.33;4.10;;;3.50;99.90;;;;;;5037856;28;20212;-63
2021/03/04 01:57:29;;;;;;;31.00;5.30;;;3.50;99.90;;;;;;5035015;28;20036;-63
2021/03/04 01:59:56;;;;;;;24.17;5.28;;;3.50;99.90;;;;;;5036844;28;20032;-63
2021/03/04 02:02:22;;;;;;;27.80;4.60;;;3.40;99.90;;;;;;5038160;28;20032;-63
2021/03/04 02:04:50;;;;;;;27.13;4.70;;;3.40;99.90;;;;;;5039123;28;20534;-63
2021/03/04 02:07:27;;;;;;;32.35;4.80;;;3.40;99.90;;;;;;5037836;28;20116;-63
2021/03/04 02:10:01;;;;;;;36.38;4.53;;;3.40;99.90;;;;;;5039181;28;20029;-63
2021/03/04 02:13:02;;;;;;;36.33;5.03;;;3.50;99.90;;;;;;5037932;28;20029;-63
2021/03/04 02:15:35;;;;;;;26.27;4.97;;;3.40;99.90;;;;;;5010601;28;20049;-63
2021/03/04 02:18:03;;;;;;;18.40;3.97;;;3.30;99.90;;;;;;5035951;28;20087;-63
2021/03/04 02:20:46;;;;;;;30.85;5.05;;;3.20;99.90;;;;;;5037496;28;20091;-63
2021/03/04 02:23:50;;;;;;;23.45;4.55;;;3.10;99.90;;;;;;5038362;28;20037;-63
2021/03/04 02:26:45;;;;;;;23.27;3.72;;;3.10;99.90;;;;;;5036032;28;20032;-63
2021/03/04 02:29:17;;;;;;;22.05;4.53;;;3.10;99.90;;;;;;5036599;28;20037;-63
2021/03/04 02:31:45;;;;;;;15.88;3.22;;;3.20;99.90;;;;;;5035733;28;20065;-63
2021/03/04 02:34:13;;;;;;;18.15;3.97;;;3.20;99.90;;;;;;5035622;28;20096;-63
2021/03/04 02:36:42;;;;;;;24.45;4.28;;;3.10;99.90;;;;;;5035974;28;20036;-63
2021/03/04 02:39:09;;;;;;;17.98;4.38;;;3.10;99.90;;;;;;5035426;28;20144;-63
2021/03/04 02:41:37;;;;;;;21.30;4.45;;;3.10;99.90;;;;;;5033514;28;20040;-63
2021/03/04 02:44:08;;;;;;;23.02;3.55;;;3.10;99.90;;;;;;5036697;28;20033;-63
2021/03/04 02:46:36;;;;;;;20.95;3.58;;;3.10;99.90;;;;;;5034579;28;20672;-63
2021/03/04 02:49:03;;;;;;;17.13;3.17;;;3.10;99.90;;;;;;5036880;28;20037;-63
2021/03/04 02:51:30;;;;;;;19.85;3.53;;;3.00;99.90;;;;;;5037417;28;20533;-62
2021/03/04 02:53:58;;;;;;;23.50;3.92;;;2.90;99.90;;;;;;5037537;28;20072;-63
2021/03/04 02:56:25;;;;;;;20.35;3.65;;;2.90;99.90;;;;;;5034730;28;20033;-63
2021/03/04 02:58:53;;;;;;;29.23;6.13;;;3.00;99.90;;;;;;5033915;28;20029;-63
2021/03/04 03:01:24;;;;;;;19.35;3.75;;;2.90;99.90;;;;;;5037347;28;20627;-63
2021/03/04 03:03:52;;;;;;;12.23;3.60;;;2.90;99.90;;;;;;5029369;28;20051;-63
2021/03/04 03:06:20;;;;;;;14.10;3.20;;;2.80;99.90;;;;;;5034883;28;20056;-63
2021/03/04 03:08:47;;;;;;;14.55;3.63;;;2.70;99.90;;;;;;5035389;28;20037;-63
2021/03/04 03:11:17;;;;;;;20.02;3.47;;;2.60;99.90;;;;;;5037302;28;20033;-63
2021/03/04 03:13:48;;;;;;;18.70;3.50;;;2.60;99.90;;;;;;5035688;28;20040;-63
2021/03/04 03:16:14;;;;;;;13.85;3.25;;;2.50;99.90;;;;;;5032578;28;20083;-63
2021/03/04 03:18:41;;;;;;;20.63;4.43;;;2.50;99.90;;;;;;5036904;28;20499;-63
2021/03/04 03:21:07;;;;;;;18.83;3.58;;;2.60;99.90;;;;;;5036798;28;20032;-63
2021/03/04 03:23:33;;;;;;;21.45;4.40;;;2.50;99.90;;;;;;5035592;28;20523;-63
2021/03/04 03:25:59;;;;;;;16.92;3.15;;;2.40;99.90;;;;;;5036410;28;20033;-63
2021/03/04 03:28:25;;;;;;;23.63;3.50;;;2.30;99.90;;;;;;5032883;28;20024;-63
2021/03/04 03:30:51;;;;;;;22.00;3.78;;;2.40;99.90;;;;;;5035357;28;20041;-63
2021/03/04 03:33:18;;;;;;;18.25;3.28;;;2.40;99.90;;;;;;5036910;28;20029;-63
2021/03/04 03:35:45;;;;;;;19.75;3.22;;;2.30;99.90;;;;;;5036462;28;20036;-63
2021/03/04 03:38:12;;;;;;;20.05;4.38;;;2.20;99.90;;;;;;5033621;28;20533;-63
2021/03/04 03:40:41;;;;;;;24.95;3.88;;;2.20;99.90;;;;;;5037203;28;20043;-63
2021/03/04 03:43:09;;;;;;;13.27;3.58;;;2.10;99.90;;;;;;5034194;28;20686;-63
2021/03/04 03:45:40;;;;;;;17.40;3.38;;;2.10;99.90;;;;;;5032321;28;20485;-63
2021/03/04 03:48:09;;;;;;;19.15;4.60;;;2.10;99.90;;;;;;5035674;28;20037;-63
2021/03/04 03:50:37;;;;;;;15.00;3.70;;;2.10;99.90;;;;;;5036120;28;20033;-63
2021/03/04 03:53:08;;;;;;;17.23;3.75;;;2.10;99.90;;;;;;5031614;28;20573;-63
2021/03/04 03:55:35;;;;;;;13.02;3.55;;;2.20;99.90;;;;;;5036110;28;20443;-63
2021/03/04 03:58:01;;;;;;;13.75;3.45;;;2.10;99.90;;;;;;5034006;28;20067;-63
2021/03/04 04:00:28;;;;;;;13.65;4.22;;;2.10;99.90;;;;;;5034794;28;20453;-63
2021/03/04 04:02:56;;;;;;;20.20;5.20;;;2.10;99.90;;;;;;5035689;28;20036;-63
2021/03/04 04:05:23;;;;;;;19.55;4.18;;;2.00;99.90;;;;;;5033743;28;20041;-63
2021/03/04 04:07:52;;;;;;;18.58;4.82;;;2.00;99.90;;;;;;5038279;28;20037;-63
2021/03/04 04:10:18;;;;;;;14.98;3.67;;;1.90;99.90;;;;;;5038717;28;20068;-63
2021/03/04 04:12:44;;;;;;;14.52;3.83;;;1.80;99.90;;;;;;5035859;28;20033;-63
2021/03/04 04:15:11;;;;;;;18.20;4.38;;;1.80;99.90;;;;;;5027209;28;20603;-63
2021/03/04 04:17:38;;;;;;;12.90;3.97;;;1.80;99.90;;;;;;5034698;28;20072;-63
2021/03/04 04:20:05;;;;;;;17.70;4.28;;;1.80;99.90;;;;;;5034646;28;20520;-63
2021/03/04 04:22:31;;;;;;;15.77;3.55;;;1.70;99.90;;;;;;5031903;28;20082;-63
2021/03/04 04:25:00;;;;;;;16.98;4.68;;;1.60;99.90;;;;;;5034737;28;20480;-63
2021/03/04 04:27:27;;;;;;;12.02;3.78;;;1.60;99.90;;;;;;5035893;28;20064;-63
2021/03/04 04:29:53;;;;;;;12.75;5.03;;;1.50;99.90;;;;;;5034651;28;20028;-63
2021/03/04 04:32:20;;;;;;;11.20;3.65;;;1.50;99.90;;;;;;5033587;28;20071;-63
2021/03/04 04:34:46;;;;;;;11.25;3.72;;;1.40;99.90;;;;;;5034255;28;20469;-63
2021/03/04 04:37:12;;;;;;;20.10;3.78;;;1.40;99.90;;;;;;5032288;28;20120;-63
2021/03/04 04:39:37;;;;;;;13.40;3.75;;;1.40;99.90;;;;;;5031056;28;20044;-63
2021/03/04 04:42:04;;;;;;;13.40;4.40;;;1.40;99.90;;;;;;5030349;28;20463;-63
2021/03/04 04:44:30;;;;;;;20.15;6.05;;;1.30;99.90;;;;;;5025541;28;20037;-63
2021/03/04 04:46:56;;;;;;;13.32;3.88;;;1.40;99.90;;;;;;5023611;28;20135;-63
2021/03/04 04:49:21;;;;;;;15.32;4.03;;;1.40;99.90;;;;;;5033527;28;20037;-63
2021/03/04 04:51:47;;;;;;;11.48;4.10;;;1.30;99.90;;;;;;5033473;28;20048;-63
2021/03/04 04:54:13;;;;;;;18.50;4.18;;;1.10;99.90;;;;;;5032449;28;20044;-63
2021/03/04 04:56:39;;;;;;;12.95;4.07;;;1.00;99.90;;;;;;5032297;28;20396;-63
2021/03/04 04:59:05;;;;;;;14.35;4.30;;;1.00;99.90;;;;;;5034112;28;20064;-63
2021/03/04 05:01:30;;;;;;;13.02;4.32;;;1.10;99.90;;;;;;5026194;28;20029;-66
2021/03/04 05:03:56;;;;;;;11.65;5.18;;;0.90;99.90;;;;;;5034445;28;20095;-66
2021/03/04 05:06:22;;;;;;;14.93;4.32;;;0.80;99.90;;;;;;5035658;28;20082;-66
2021/03/04 05:08:48;;;;;;;16.60;4.40;;;0.80;99.90;;;;;;5036841;28;20040;-67
2021/03/04 05:11:16;;;;;;;22.58;6.13;;;0.70;99.90;;;;;;5035046;28;20564;-66
2021/03/04 05:13:41;;;;;;;9.98;4.53;;;0.60;99.90;;;;;;5033728;28;20156;-65
2021/03/04 05:16:07;;;;;;;13.98;5.93;;;0.60;99.90;;;;;;5036161;28;20020;-66
2021/03/04 05:18:33;;;;;;;15.27;4.70;;;0.60;99.90;;;;;;5036277;28;20073;-66
2021/03/04 05:20:59;;;;;;;14.52;4.72;;;0.60;99.90;;;;;;5036694;28;20436;-65
2021/03/04 05:23:25;;;;;;;15.38;5.07;;;0.50;99.90;;;;;;5037636;28;20045;-65
2021/03/04 05:25:50;;;;;;;11.93;4.68;;;0.50;99.90;;;;;;5038682;28;20024;-65
2021/03/04 05:28:16;;;;;;;15.15;4.75;;;0.60;99.90;;;;;;5038935;28;20058;-66
2021/03/04 05:30:42;;;;;;;11.27;4.32;;;0.50;99.90;;;;;;5034763;28;20556;-66
2021/03/04 05:33:08;;;;;;;10.80;4.13;;;0.50;99.90;;;;;;5035199;28;20032;-66
2021/03/04 05:35:34;;;;;;;13.80;4.93;;;0.50;99.90;;;;;;5035435;28;20211;-65
2021/03/04 05:38:00;;;;;;;13.82;5.78;;;0.60;99.90;;;;;;5033501;28;20144;-65
2021/03/04 05:40:26;;;;;;;14.23;5.80;;;0.60;99.90;;;;;;5036939;28;20028;-65
2021/03/04 05:42:52;;;;;;;14.25;5.90;;;0.40;99.90;;;;;;5029379;28;20442;-66
2021/03/04 05:45:19;;;;;;;14.43;6.03;;;0.40;99.90;;;;;;5028391;28;20030;-66
2021/03/04 05:47:47;;;;;;;14.45;5.38;;;0.40;99.90;;;;;;5034628;28;20028;-66
2021/03/04 05:50:16;;;;;;;14.63;4.95;;;0.40;99.90;;;;;;5034670;28;20029;-66
2021/03/04 05:52:52;;;;;;;12.40;5.37;;;0.30;99.90;;;;;;5034194;28;20052;-66
2021/03/04 05:55:18;;;;;;;16.98;5.25;;;0.20;99.90;;;;;;5037211;28;20653;-66
2021/03/04 05:57:45;;;;;;;15.73;5.47;;;0.20;99.90;;;;;;5034882;28;20095;-66
2021/03/04 06:00:13;;;;;;;15.15;6.38;;;0.20;99.90;;;;;;5031569;28;20144;-66
2021/03/04 06:02:41;;;;;;;21.65;5.53;;;0.10;99.90;;;;;;5030460;28;20258;-66
2021/03/04 06:05:08;;;;;;;17.77;5.88;;;0.20;99.90;;;;;;5036737;28;20357;-66
2021/03/04 06:07:34;;;;;;;12.18;5.40;;;0.20;99.90;;;;;;5035620;28;20381;-66
2021/03/04 06:10:00;;;;;;;15.98;5.90;;;0.20;99.90;;;;;;5036722;28;20552;-66
2021/03/04 06:12:29;;;;;;;18.33;5.82;;;0.10;99.90;;;;;;5030656;28;20031;-65
2021/03/04 06:14:55;;;;;;;13.43;5.00;;;0.10;99.90;;;;;;5031206;28;20111;-66
2021/03/04 06:17:21;;;;;;;14.45;5.80;;;0.00;99.90;;;;;;5036102;28;20465;-66
2021/03/04 06:19:58;;;;;;;14.63;6.20;;;0.10;99.90;;;;;;5038057;28;20028;-66
2021/03/04 06:22:37;;;;;;;15.15;6.28;;;0.00;99.90;;;;;;5037790;28;20036;-65
2021/03/04 06:25:11;;;;;;;14.13;6.33;;;0.00;99.90;;;;;;5053056;28;20391;-66
2021/03/04 06:27:41;;;;;;;18.50;6.20;;;0.00;99.90;;;;;;5029241;28;20029;-66
2021/03/04 06:30:17;;;;;;;24.20;6.78;;;0.00;99.90;;;;;;5037650;28;20021;-66
2021/03/04 06:32:58;;;;;;;16.58;6.53;;;0.10;99.90;;;;;;5038901;28;20483;-66
2021/03/04 06:35:33;;;;;;;13.00;5.70;;;0.00;99.90;;;;;;5039425;28;20773;-66
2021/03/04 06:38:00;;;;;;;16.23;6.95;;;0.00;99.90;;;;;;5037296;28;20502;-66
2021/03/04 06:40:30;;;;;;;16.55;6.55;;;0.10;99.90;;;;;;5037495;28;21134;-66
2021/03/04 06:42:56;;;;;;;22.45;7.95;;;0.20;99.90;;;;;;5038799;28;20112;-66
2021/03/04 06:45:33;;;;;;;16.45;8.00;;;0.30;99.90;;;;;;5038904;28;20033;-65
2021/03/04 06:48:16;;;;;;;18.92;9.05;;;0.50;99.90;;;;;;5038623;28;20045;-66
2021/03/04 06:50:44;;;;;;;21.17;10.48;;;0.60;99.90;;;;;;5036846;28;20025;-65
2021/03/04 06:53:12;;;;;;;18.35;10.02;;;0.80;99.90;;;;;;5035714;28;20585;-66
2021/03/04 06:55:57;;;;;;;23.55;12.43;;;0.90;99.90;;;;;;5037282;28;20798;-66
2021/03/04 06:58:41;;;;;;;23.75;12.85;;;1.00;99.90;;;;;;5037142;28;20129;-66
2021/03/04 07:01:12;;;;;;;21.92;11.95;;;0.90;99.90;;;;;;5036833;28;20055;-66
2021/03/04 07:03:45;;;;;;;23.17;11.55;;;1.00;99.90;;;;;;5035911;28;20063;-65
2021/03/04 07:06:16;;;;;;;23.05;11.02;;;0.90;99.90;;;;;;5037547;28;20114;-65
2021/03/04 07:08:43;;;;;;;17.23;10.40;;;0.90;99.90;;;;;;5037885;28;20357;-66
2021/03/04 07:11:11;;;;;;;22.33;11.32;;;0.80;99.90;;;;;;5039033;28;20040;-65
2021/03/04 07:13:39;;;;;;;20.30;10.90;;;0.80;99.90;;;;;;5037653;28;20100;-65
2021/03/04 07:16:09;;;;;;;22.02;11.82;;;0.70;99.90;;;;;;5038411;28;20043;-65
2021/03/04 07:18:53;;;;;;;22.02;11.68;;;0.70;99.90;;;;;;5038819;28;20581;-65
2021/03/04 07:21:19;;;;;;;21.33;10.93;;;0.60;99.90;;;;;;5037385;28;20516;-66
2021/03/04 07:23:47;;;;;;;19.77;10.10;;;0.60;99.90;;;;;;5027264;28;20040;-66
2021/03/04 07:26:14;;;;;;;18.80;10.30;;;0.60;99.90;;;;;;5038422;28;20035;-65
2021/03/04 07:28:42;;;;;;;23.02;10.77;;;0.60;99.90;;;;;;5037064;28;20663;-66
2021/03/04 07:31:10;;;;;;;25.95;11.82;;;0.60;99.90;;;;;;5036441;28;20092;-65
2021/03/04 07:33:37;;;;;;;26.13;12.77;;;0.60;99.90;;;;;;5037078;28;20773;-66
2021/03/04 07:36:08;;;;;;;22.13;10.52;;;0.60;99.90;;;;;;5037818;28;20033;-66
2021/03/04 07:38:35;;;;;;;27.95;12.93;;;0.70;99.90;;;;;;5036719;28;20139;-65
2021/03/04 07:41:12;;;;;;;30.38;12.95;;;0.70;99.90;;;;;;5038535;28;20021;-65
2021/03/04 07:43:54;;;;;;;30.45;13.73;;;0.70;99.90;;;;;;5036799;28;20036;-65
2021/03/04 07:46:32;;;;;;;31.30;14.57;;;0.80;99.90;;;;;;5038511;28;20056;-65
2021/03/04 07:48:59;;;;;;;34.08;14.90;;;0.80;99.90;;;;;;5037404;28;20575;-65
2021/03/04 07:51:26;;;;;;;32.05;13.90;;;0.80;99.90;;;;;;5037647;28;20057;-66
2021/03/04 07:53:54;;;;;;;30.40;13.90;;;0.90;99.90;;;;;;5036738;28;21000;-66
2021/03/04 07:56:28;;;;;;;25.95;12.73;;;0.90;99.90;;;;;;5033859;28;20040;-65
2021/03/04 07:58:55;;;;;;;28.33;12.95;;;0.90;99.90;;;;;;5036649;28;20421;-65
2021/03/04 08:01:21;;;;;;;21.67;11.43;;;1.00;99.90;;;;;;5037507;28;20043;-65
2021/03/04 08:03:49;;;;;;;23.38;12.20;;;1.00;99.90;;;;;;5037321;28;20119;-66
2021/03/04 08:06:15;;;;;;;24.88;12.48;;;1.00;99.90;;;;;;5036413;28;20553;-65
2021/03/04 08:08:42;;;;;;;18.77;11.55;;;1.00;99.90;;;;;;5038044;28;20154;-66
2021/03/04 08:11:08;;;;;;;21.60;11.68;;;1.10;99.90;;;;;;5037625;28;20025;-65
2021/03/04 08:13:38;;;;;;;21.42;11.35;;;1.10;99.90;;;;;;5035908;28;20106;-66
2021/03/04 08:16:23;;;;;;;22.25;10.50;;;1.20;99.90;;;;;;5036217;28;20035;-65
2021/03/04 08:18:59;;;;;;;24.65;11.52;;;1.30;99.90;;;;;;5037345;28;20061;-65
2021/03/04 08:21:25;;;;;;;23.10;11.23;;;1.30;99.90;;;;;;5037450;28;20468;-66
2021/03/04 08:23:52;;;;;;;18.40;10.43;;;1.40;99.90;;;;;;5035804;28;20821;-66
2021/03/04 08:26:26;;;;;;;21.95;10.45;;;1.50;99.90;;;;;;5037125;28;20036;-66
2021/03/04 08:29:06;;;;;;;19.27;10.88;;;1.60;99.90;;;;;;5036967;28;20131;-66
2021/03/04 08:31:41;;;;;;;17.02;8.88;;;1.70;99.90;;;;;;5036139;28;20523;-66
2021/03/04 08:34:07;;;;;;;18.95;9.73;;;1.90;99.90;;;;;;5037306;28;20051;-66
2021/03/04 08:36:44;;;;;;;14.45;8.38;;;1.90;99.90;;;;;;5037142;28;20496;-66
2021/03/04 08:39:11;;;;;;;15.77;9.25;;;2.00;99.90;;;;;;5035114;28;20037;-66
2021/03/04 08:41:37;;;;;;;16.73;8.20;;;2.20;99.90;;;;;;5036251;28;20033;-66
2021/03/04 08:44:18;;;;;;;11.52;7.47;;;2.80;99.90;;;;;;5036521;28;20446;-66
2021/03/04 08:46:50;;;;;;;14.00;7.05;;;3.20;99.90;;;;;;5032983;28;20083;-66
2021/03/04 08:49:19;;;;;;;13.32;7.22;;;3.40;99.90;;;;;;5035956;28;20041;-66
2021/03/04 08:51:46;;;;;;;12.52;6.78;;;3.60;99.90;;;;;;5035504;28;20025;-66
2021/03/04 08:54:27;;;;;;;12.27;7.05;;;3.70;99.90;;;;;;5034672;28;20523;-67
2021/03/04 08:56:58;;;;;;;10.60;5.80;;;3.90;99.90;;;;;;5036072;28;20076;-66
2021/03/04 08:59:26;;;;;;;12.55;6.10;;;3.90;99.90;;;;;;5035112;28;20040;-66
2021/03/04 09:01:54;;;;;;;12.65;5.32;;;4.00;99.90;;;;;;5036106;28;20136;-66
2021/03/04 09:04:21;;;;;;;7.93;4.93;;;4.20;99.90;;;;;;5033476;28;21390;-67
2021/03/04 09:06:47;;;;;;;9.65;5.05;;;4.50;99.90;;;;;;5036548;28;20144;-67
2021/03/04 09:09:27;;;;;;;8.95;5.32;;;4.70;99.90;;;;;;5035517;28;20080;-66
2021/03/04 09:11:55;;;;;;;10.10;5.30;;;4.80;99.90;;;;;;5035008;28;20140;-66
2021/03/04 09:14:29;;;;;;;7.40;4.85;;;4.80;99.90;;;;;;5036661;28;20051;-67
2021/03/04 09:16:55;;;;;;;8.77;4.93;;;5.10;99.90;;;;;;5027046;28;20067;-67
2021/03/04 09:19:31;;;;;;;9.20;5.65;;;5.20;99.90;;;;;;5035437;28;20461;-66
2021/03/04 09:21:59;;;;;;;6.78;4.05;;;5.30;99.90;;;;;;5034529;28;20509;-66
2021/03/04 09:24:26;;;;;;;5.65;4.07;;;5.20;99.90;;;;;;5034834;28;20120;-66
2021/03/04 09:26:52;;;;;;;8.95;4.28;;;5.50;99.90;;;;;;5051968;28;20033;-66
2021/03/04 09:29:19;;;;;;;6.70;3.83;;;5.80;99.90;;;;;;5035534;28;20021;-67
2021/03/04 09:31:50;;;;;;;9.35;4.18;;;6.20;99.90;;;;;;5036625;28;20074;-67
2021/03/04 09:34:16;;;;;;;5.78;3.67;;;6.40;99.90;;;;;;5036601;28;20388;-66
2021/03/04 09:36:42;;;;;;;11.02;4.07;;;6.40;99.90;;;;;;5034738;28;20029;-66
2021/03/04 09:39:07;;;;;;;6.93;3.80;;;6.20;99.90;;;;;;5035484;28;20043;-67
2021/03/04 09:41:34;;;;;;;8.90;3.90;;;6.00;99.90;;;;;;5034300;28;20032;-66
2021/03/04 09:44:03;;;;;;;5.82;3.70;;;5.80;99.90;;;;;;5034432;28;20060;-67
2021/03/04 09:46:35;;;;;;;7.47;3.60;;;5.50;99.90;;;;;;5035902;28;20492;-66
2021/03/04 09:49:12;;;;;;;6.50;3.85;;;5.20;99.90;;;;;;5035144;28;20025;-66
2021/03/04 09:51:41;;;;;;;9.10;4.10;;;5.60;99.90;;;;;;5037235;28;20370;-66
2021/03/04 09:54:08;;;;;;;9.70;3.42;;;6.00;99.90;;;;;;5038546;28;20028;-67
2021/03/04 09:56:34;;;;;;;6.00;2.75;;;6.80;99.90;;;;;;5036932;28;20028;-67
2021/03/04 09:59:00;;;;;;;7.07;3.47;;;7.00;99.90;;;;;;5038005;28;20030;-67
2021/03/04 10:01:36;;;;;;;7.05;3.05;;;7.30;99.90;;;;;;5039032;28;20025;-67
2021/03/04 10:04:04;;;;;;;6.28;3.05;;;7.60;99.90;;;;;;5038211;28;20444;-67
2021/03/04 10:06:35;;;;;;;6.20;2.75;;;8.20;99.90;;;;;;5040085;28;20080;-67
2021/03/04 10:09:06;;;;;;;5.38;2.80;;;8.60;99.90;;;;;;5038867;28;20087;-67
2021/03/04 10:11:33;;;;;;;6.25;3.13;;;8.90;99.90;;;;;;5038442;28;20136;-67
2021/03/04 10:14:13;;;;;;;5.53;2.85;;;8.50;99.90;;;;;;5038324;28;20544;-67
2021/03/04 10:16:40;;;;;;;8.68;3.50;;;8.30;99.90;;;;;;5037422;28;20040;-66
2021/03/04 10:19:07;;;;;;;6.20;2.67;;;7.90;99.90;;;;;;5039225;28;20064;-67
2021/03/04 10:21:33;;;;;;;4.38;2.30;;;7.30;99.90;;;;;;5036936;28;20045;-67
2021/03/04 10:23:59;;;;;;;6.13;2.65;;;7.40;99.90;;;;;;5039639;28;20468;-67
2021/03/04 10:26:25;;;;;;;7.00;2.30;;;7.50;99.90;;;;;;5039317;28;20112;-68
2021/03/04 10:28:51;;;;;;;4.00;2.53;;;7.60;99.90;;;;;;5039157;28;20032;-67
2021/03/04 10:31:17;;;;;;;4.35;2.17;;;8.00;99.90;;;;;;5038330;28;20033;-67
2021/03/04 10:33:43;;;;;;;4.82;2.42;;;8.10;99.90;;;;;;5038533;28;20040;-67
2021/03/04 10:36:10;;;;;;;6.25;2.70;;;8.20;99.90;;;;;;5039425;28;20037;-67
2021/03/04 10:38:36;;;;;;;8.73;2.97;;;8.60;99.90;;;;;;5038953;28;20036;-67
2021/03/04 10:41:03;;;;;;;7.20;2.38;;;8.70;99.90;;;;;;5039502;28;20017;-68
2021/03/04 10:43:29;;;;;;;4.90;2.03;;;8.70;99.90;;;;;;5037445;28;20040;-67
2021/03/04 10:45:55;;;;;;;4.90;1.73;;;8.50;99.90;;;;;;5036582;28;20442;-67
2021/03/04 10:48:22;;;;;;;5.10;2.10;;;7.80;99.90;;;;;;5038811;28;20037;-67
2021/03/04 10:50:48;;;;;;;5.30;2.10;;;8.10;99.90;;;;;;5038635;28;20468;-65
2021/03/04 10:53:13;;;;;;;6.82;2.13;;;8.40;99.90;;;;;;5037730;28;20594;-66
2021/03/04 10:55:40;;;;;;;4.57;1.58;;;9.00;99.90;;;;;;5036708;28;20140;-66
2021/03/04 10:58:06;;;;;;;4.75;2.28;;;9.00;99.90;;;;;;5029554;28;20559;-65
2021/03/04 11:00:32;;;;;;;9.85;1.90;;;8.80;99.90;;;;;;5038854;28;20063;-66
2021/03/04 11:02:58;;;;;;;3.72;2.00;;;8.80;99.90;;;;;;5036393;28;20116;-67
2021/03/04 11:05:24;;;;;;;4.07;2.25;;;9.10;99.90;;;;;;5038514;28;20768;-68
2021/03/04 11:07:50;;;;;;;6.45;1.83;;;9.50;99.90;;;;;;5039206;28;20025;-66
2021/03/04 11:10:16;;;;;;;7.05;2.33;;;9.80;99.90;;;;;;5020055;28;20365;-66
2021/03/04 11:12:42;;;;;;;3.03;1.67;;;9.50;99.90;;;;;;5028588;28;20208;-66
2021/03/04 11:15:08;;;;;;;4.28;1.90;;;9.50;99.90;;;;;;5038534;28;20025;-66
2021/03/04 11:17:34;;;;;;;6.40;1.88;;;9.60;99.90;;;;;;5037991;28;20419;-65
2021/03/04 11:20:00;;;;;;;6.45;1.88;;;9.50;99.90;;;;;;5036668;28;20037;-66
2021/03/04 11:22:26;;;;;;;4.63;2.17;;;9.70;99.90;;;;;;5036514;28;20021;-68
2021/03/04 11:24:52;;;;;;;3.50;1.70;;;9.70;99.90;;;;;;5036315;28;20041;-69
2021/03/04 11:27:18;;;;;;;4.68;1.50;;;9.50;99.90;;;;;;5037081;28;20032;-68
2021/03/04 11:29:46;;;;;;;4.95;1.35;;;9.60;99.90;;;;;;5036852;28;20458;-68
2021/03/04 11:32:13;;;;;;;3.63;1.55;;;9.20;99.90;;;;;;5036139;28;20264;-68
2021/03/04 11:34:38;;;;;;;3.92;1.63;;;9.10;99.90;;;;;;5035668;28;20084;-69
2021/03/04 11:37:04;;;;;;;4.30;1.23;;;9.40;99.90;;;;;;5036060;28;20044;-68
2021/03/04 11:39:30;;;;;;;4.40;1.23;;;9.60;99.90;;;;;;5037833;28;20029;-66
2021/03/04 11:41:56;;;;;;;2.97;0.93;;;10.10;99.90;;;;;;5038379;28;20074;-66
2021/03/04 11:44:22;;;;;;;1.23;0.90;;;10.40;99.90;;;;;;5037798;28;20043;-66
2021/03/04 11:46:48;;;;;;;4.20;0.82;;;9.90;99.30;;;;;;5018787;28;20028;-65
2021/03/04 11:49:13;;;;;;;1.63;0.88;;;9.80;99.90;;;;;;5037745;28;20044;-66
2021/03/04 11:51:39;;;;;;;4.40;1.27;;;10.20;99.90;;;;;;5037747;28;20419;-66
2021/03/04 11:54:05;;;;;;;3.03;0.95;;;10.40;98.70;;;;;;5037694;28;20029;-66
2021/03/04 11:56:32;;;;;;;2.45;0.95;;;10.30;99.90;;;;;;5037855;28;20500;-66
2021/03/04 11:59:01;;;;;;;2.13;0.90;;;10.50;98.30;;;;;;5034681;28;20459;-66
2021/03/04 12:01:27;;;;;;;1.10;0.88;;;10.70;97.80;;;;;;5037723;28;20025;-66
2021/03/04 12:03:53;;;;;;;2.85;0.63;;;10.40;97.90;;;;;;5037532;28;20037;-66
2021/03/04 12:06:19;;;;;;;1.95;0.77;;;10.40;96.50;;;;;;5037931;28;20025;-66
2021/03/04 12:08:46;;;;;;;1.38;0.63;;;10.50;97.00;;;;;;5037234;28;20074;-67
2021/03/04 12:11:12;;;;;;;0.90;0.40;;;10.60;95.20;;;;;;5037311;28;20365;-66
2021/03/04 12:13:40;;;;;;;3.35;0.85;;;10.30;93.90;;;;;;5036942;28;20029;-69
2021/03/04 12:16:06;;;;;;;4.15;0.95;;;10.70;94.80;;;;;;5037480;28;20103;-66
2021/03/04 12:18:33;;;;;;;4.72;0.90;;;10.80;95.10;;;;;;5037230;28;20163;-66
2021/03/04 12:20:59;;;;;;;1.63;0.73;;;10.70;95.10;;;;;;5037297;28;20032;-66
2021/03/04 12:23:25;;;;;;;1.77;0.77;;;10.70;94.40;;;;;;5037626;28;20083;-67
2021/03/04 12:25:51;;;;;;;0.85;0.55;;;11.00;92.50;;;;;;5035638;28;20453;-66
2021/03/04 12:28:17;;;;;;;0.70;0.63;;;11.10;90.10;;;;;;5037231;28;20441;-66
2021/03/04 12:30:43;;;;;;;1.20;0.50;;;10.70;88.50;;;;;;5037328;28;20074;-66
2021/03/04 12:33:09;;;;;;;0.70;0.52;;;10.20;85.60;;;;;;5036629;28;20036;-65
2021/03/04 12:35:35;;;;;;;1.08;0.60;;;10.50;85.00;;;;;;5036402;28;20063;-66
2021/03/04 12:38:01;;;;;;;0.50;0.40;;;10.60;82.70;;;;;;5035935;28;20104;-66
2021/03/04 12:40:28;;;;;;;0.93;0.50;;;10.80;81.80;;;;;;5037182;28;20039;-66
2021/03/04 12:42:54;;;;;;;2.28;0.70;;;10.80;85.70;;;;;;5037350;28;20079;-67
2021/03/04 12:45:20;;;;;;;1.77;0.70;;;10.90;81.70;;;;;;5035389;28;20037;-67
2021/03/04 12:47:45;;;;;;;1.98;0.68;;;10.90;79.10;;;;;;5036323;28;20064;-66
2021/03/04 12:50:12;;;;;;;1.85;0.93;;;10.50;85.10;;;;;;5036472;28;20040;-66
2021/03/04 12:52:38;;;;;;;1.75;0.65;;;10.40;83.80;;;;;;5036828;28;20538;-65